createdAt,value
2023-08-10T00:14:31.380Z,66.40
2023-08-10T00:17:00.895Z,66.43
2023-08-10T00:19:28.797Z,66.32
2023-08-10T00:21:57.936Z,66.31
2023-08-10T00:24:29.118Z,66.32
2023-08-10T00:27:01.624Z,66.34
2023-08-10T00:29:30.739Z,66.36
2023-08-10T00:31:59.211Z,66.25
2023-08-10T00:34:28.548Z,66.29
2023-08-10T00:36:57.859Z,66.23
2023-08-10T00:39:27.784Z,66.17
2023-08-10T00:41:56.630Z,66.24
2023-08-10T00:44:25.763Z,66.08
2023-08-10T00:46:55.180Z,65.98
2023-08-10T00:49:31.288Z,66.17
2023-08-10T00:51:59.953Z,66.11
2023-08-10T00:54:31.237Z,66.13
2023-08-10T00:57:00.936Z,66.07
2023-08-10T00:59:36.259Z,66.19
2023-08-10T01:02:05.667Z,66.14
2023-08-10T01:04:34.826Z,66.17
2023-08-10T01:07:34.408Z,66.43
2023-08-10T01:10:26.640Z,66.65
2023-08-10T01:13:06.407Z,66.69
2023-08-10T01:15:48.305Z,66.59
2023-08-10T01:18:20.755Z,66.84
2023-08-10T01:20:59.256Z,66.89
2023-08-10T01:23:42.433Z,66.97
2023-08-10T01:26:22.186Z,67.03
2023-08-10T01:28:53.561Z,67.00
2023-08-10T01:31:22.573Z,67.10
2023-08-10T01:33:51.341Z,67.07
2023-08-10T01:36:19.542Z,67.07
2023-08-10T01:38:47.748Z,67.15
2023-08-10T01:41:16.944Z,67.11
2023-08-10T01:43:45.834Z,67.21
2023-08-10T01:46:18.320Z,67.33
2023-08-10T01:48:49.226Z,67.36
2023-08-10T01:51:23.108Z,67.51
2023-08-10T01:53:54.034Z,67.48
2023-08-10T01:56:22.214Z,67.41
2023-08-10T01:58:51.380Z,67.47
2023-08-10T02:01:19.555Z,67.77
2023-08-10T02:03:46.903Z,67.68
2023-08-10T02:06:14.469Z,67.73
2023-08-10T02:08:43.759Z,67.75
2023-08-10T02:11:11.643Z,67.85
2023-08-10T02:13:40.356Z,67.89
2023-08-10T02:16:08.558Z,67.98
2023-08-10T02:18:36.962Z,68.03
2023-08-10T02:21:05.432Z,68.19
2023-08-10T02:23:34.145Z,68.25
2023-08-10T02:26:01.308Z,68.08
2023-08-10T02:28:29.935Z,68.09
2023-08-10T02:30:59.297Z,68.20
2023-08-10T02:33:26.978Z,68.36
2023-08-10T02:35:56.855Z,68.27
2023-08-10T02:38:24.105Z,68.38
2023-08-10T02:40:53.348Z,68.49
2023-08-10T02:43:22.156Z,68.54
2023-08-10T02:45:51.168Z,68.58
2023-08-10T02:48:21.194Z,68.65
2023-08-10T02:50:51.153Z,68.54
2023-08-10T02:53:19.743Z,68.73
2023-08-10T02:55:49.938Z,68.88
2023-08-10T02:58:21.507Z,68.72
2023-08-10T03:00:49.330Z,68.72
2023-08-10T03:03:18.002Z,68.82
2023-08-10T03:05:46.499Z,68.92
2023-08-10T03:08:15.283Z,69.00
2023-08-10T03:10:44.158Z,68.90
2023-08-10T03:13:15.590Z,69.14
2023-08-10T03:15:43.343Z,69.12
2023-08-10T03:18:14.319Z,68.92
2023-08-10T03:20:44.881Z,69.04
2023-08-10T03:23:12.939Z,68.89
2023-08-10T03:25:45.456Z,68.91
2023-08-10T03:28:15.808Z,68.91
2023-08-10T03:30:45.035Z,68.85
2023-08-10T03:33:13.450Z,68.89
2023-08-10T03:35:42.881Z,68.73
2023-08-10T03:38:11.692Z,68.90
2023-08-10T03:40:40.900Z,68.92
2023-08-10T03:43:11.118Z,68.97
2023-08-10T03:45:39.618Z,68.91
2023-08-10T03:48:08.940Z,68.92
2023-08-10T03:50:37.553Z,68.76
2023-08-10T03:53:08.415Z,69.01
2023-08-10T03:55:37.668Z,68.85
2023-08-10T03:58:05.625Z,68.94
2023-08-10T04:00:33.160Z,68.95
2023-08-10T04:03:01.358Z,68.82
2023-08-10T04:05:30.476Z,68.80
2023-08-10T04:07:59.658Z,68.91
2023-08-10T04:10:28.237Z,68.76
2023-08-10T04:12:56.280Z,69.13
2023-08-10T04:15:24.704Z,69.02
2023-08-10T04:17:53.922Z,68.95
2023-08-10T04:20:22.144Z,68.99
2023-08-10T04:22:51.130Z,69.06
2023-08-10T04:25:22.062Z,68.92
2023-08-10T04:27:50.065Z,68.99
2023-08-10T04:30:18.939Z,68.94
2023-08-10T04:32:46.917Z,69.07
2023-08-10T04:35:15.910Z,68.96
2023-08-10T04:37:45.546Z,68.70
2023-08-10T04:40:16.719Z,68.59
2023-08-10T04:42:46.189Z,68.58
2023-08-10T04:45:14.270Z,68.57
2023-08-10T04:47:43.937Z,68.61
2023-08-10T04:50:12.589Z,68.50
2023-08-10T04:52:43.556Z,68.48
2023-08-10T04:55:12.092Z,68.27
2023-08-10T04:57:42.819Z,67.95
2023-08-10T05:00:12.580Z,67.91
2023-08-10T05:02:42.512Z,67.66
2023-08-10T05:05:14.478Z,67.36
2023-08-10T05:07:43.334Z,67.29
2023-08-10T05:10:11.221Z,67.17
2023-08-10T05:12:39.948Z,67.10
2023-08-10T05:15:09.612Z,66.95
2023-08-10T05:17:38.977Z,66.79
2023-08-10T05:20:10.298Z,66.66
2023-08-10T05:22:58.713Z,66.60
2023-08-10T05:25:27.599Z,66.48
2023-08-10T05:27:58.126Z,66.38
2023-08-10T05:30:26.805Z,66.11
2023-08-10T05:32:55.048Z,65.96
2023-08-10T05:35:23.762Z,65.87
2023-08-10T05:37:52.266Z,65.68
2023-08-10T05:40:19.729Z,65.56
2023-08-10T05:42:47.360Z,65.66
2023-08-10T05:45:14.822Z,65.42
2023-08-10T05:47:44.840Z,65.51
2023-08-10T05:50:15.585Z,65.34
2023-08-10T05:52:56.120Z,65.13
2023-08-10T05:55:25.118Z,65.04
2023-08-10T05:57:53.881Z,65.01
2023-08-10T06:00:23.644Z,64.96
2023-08-10T06:02:52.205Z,64.70
2023-08-10T06:05:20.083Z,64.78
2023-08-10T06:07:49.775Z,64.38
2023-08-10T06:10:19.162Z,64.51
2023-08-10T06:12:50.628Z,64.29
2023-08-10T06:15:18.341Z,64.00
2023-08-10T06:17:49.144Z,63.98
2023-08-10T06:20:17.890Z,63.92
2023-08-10T06:22:47.115Z,63.61
2023-08-10T06:25:17.212Z,63.67
2023-08-10T06:27:48.441Z,63.25
2023-08-10T06:30:18.308Z,63.45
2023-08-10T06:32:47.120Z,63.33
2023-08-10T06:35:16.052Z,63.25
2023-08-10T06:37:44.411Z,63.08
2023-08-10T06:40:13.017Z,63.06
2023-08-10T06:42:41.317Z,62.91
2023-08-10T06:45:13.693Z,63.02
2023-08-10T06:47:44.306Z,62.73
2023-08-10T06:50:14.114Z,62.67
2023-08-10T06:53:02.639Z,62.28
2023-08-10T06:55:35.057Z,62.35
2023-08-10T06:58:08.621Z,62.09
2023-08-10T07:00:39.713Z,62.03
2023-08-10T07:03:14.086Z,61.92
2023-08-10T07:05:52.933Z,61.82
2023-08-10T07:08:27.262Z,61.85
2023-08-10T07:10:56.312Z,61.87
2023-08-10T07:13:29.497Z,61.81
2023-08-10T07:16:01.573Z,61.60
2023-08-10T07:18:31.950Z,61.73
2023-08-10T07:21:00.428Z,61.73
2023-08-10T07:23:40.245Z,62.07
2023-08-10T07:26:17.201Z,62.48
2023-08-10T07:28:46.536Z,62.86
2023-08-10T07:31:17.204Z,63.15
2023-08-10T07:33:47.634Z,63.27
2023-08-10T07:36:16.768Z,63.47
2023-08-10T07:38:46.978Z,63.52
2023-08-10T07:41:17.345Z,63.62
2023-08-10T07:43:47.067Z,63.67
2023-08-10T07:46:17.298Z,63.78
2023-08-10T07:48:47.905Z,63.93
2023-08-10T07:51:19.022Z,63.90
2023-08-10T07:54:04.518Z,63.94
2023-08-10T07:56:34.749Z,63.83
2023-08-10T07:59:04.748Z,63.99
2023-08-10T08:01:34.327Z,64.14
2023-08-10T08:04:04.622Z,64.25
2023-08-10T08:06:36.430Z,64.36
2023-08-10T08:09:26.966Z,64.41
2023-08-10T08:11:55.472Z,64.32
2023-08-10T08:14:23.880Z,64.34
2023-08-10T08:16:52.900Z,64.46
2023-08-10T08:19:22.090Z,64.58
2023-08-10T08:21:50.554Z,64.59
2023-08-10T08:24:19.629Z,64.49
2023-08-10T08:26:48.820Z,64.41
2023-08-10T08:29:18.631Z,64.29
2023-08-10T08:31:47.672Z,64.18
2023-08-10T08:34:16.153Z,64.23
2023-08-10T08:36:44.724Z,64.31
2023-08-10T08:39:14.466Z,64.31
2023-08-10T08:41:45.488Z,64.01
2023-08-10T08:44:16.127Z,64.21
2023-08-10T08:46:49.341Z,64.15
2023-08-10T08:49:18.780Z,64.08
2023-08-10T08:51:48.455Z,64.24
2023-08-10T08:54:17.413Z,64.30
2023-08-10T08:56:46.248Z,64.20
2023-08-10T08:59:17.293Z,63.96
2023-08-10T09:01:48.889Z,64.24
2023-08-10T09:04:17.909Z,64.25
2023-08-10T09:06:46.991Z,64.26
2023-08-10T09:09:17.646Z,64.38
2023-08-10T09:11:46.256Z,64.27
2023-08-10T09:14:16.987Z,64.49
2023-08-10T09:16:46.937Z,64.71
2023-08-10T09:19:18.519Z,64.68
2023-08-10T09:21:47.751Z,64.46
2023-08-10T09:24:17.602Z,64.14
2023-08-10T09:26:45.944Z,64.27
2023-08-10T09:29:15.018Z,64.59
2023-08-10T09:31:45.120Z,64.58
2023-08-10T09:34:23.151Z,64.13
2023-08-10T09:36:56.867Z,63.86
2023-08-10T09:39:32.197Z,64.01
2023-08-10T09:42:01.486Z,63.66
2023-08-10T09:44:44.532Z,63.31
2023-08-10T09:47:14.349Z,62.53
2023-08-10T09:49:55.318Z,62.30
2023-08-10T09:52:30.632Z,61.59
2023-08-10T09:54:59.529Z,60.70
2023-08-10T09:57:28.924Z,59.89
2023-08-10T09:59:58.966Z,59.42
2023-08-10T10:02:29.401Z,59.60
2023-08-10T10:04:58.946Z,59.60
2023-08-10T10:07:37.439Z,59.45
2023-08-10T10:10:12.058Z,59.74
2023-08-10T10:12:48.736Z,59.72
2023-08-10T10:15:20.036Z,59.63
2023-08-10T10:17:53.138Z,59.34
2023-08-10T10:20:22.897Z,59.21
2023-08-10T10:22:52.904Z,58.82
2023-08-10T10:25:21.508Z,58.38
2023-08-10T10:27:53.032Z,58.33
2023-08-10T10:30:30.758Z,58.42
2023-08-10T10:33:11.493Z,57.88
2023-08-10T10:39:05.384Z,58.22
2023-08-10T10:41:35.720Z,57.72
2023-08-10T10:44:07.142Z,58.20
2023-08-10T10:46:36.526Z,58.06
2023-08-10T10:49:08.159Z,57.63
2023-08-10T10:52:09.668Z,57.16
2023-08-10T10:54:58.004Z,57.12
2023-08-10T10:57:29.027Z,57.41
2023-08-10T10:59:58.071Z,57.25
2023-08-10T11:02:28.859Z,56.86
2023-08-10T11:05:17.878Z,56.60
2023-08-10T11:07:50.291Z,56.46
2023-08-10T11:10:20.959Z,56.37
2023-08-10T11:12:50.762Z,56.10
2023-08-10T11:15:21.500Z,55.80
2023-08-10T11:17:53.274Z,55.63
2023-08-10T11:20:30.331Z,55.92
2023-08-10T11:23:00.023Z,55.67
2023-08-10T11:25:28.413Z,55.31
2023-08-10T11:28:00.485Z,55.48
2023-08-10T11:30:35.219Z,55.27
2023-08-10T11:33:11.491Z,55.81
2023-08-10T11:35:44.541Z,56.00
2023-08-10T11:38:15.932Z,55.71
2023-08-10T11:40:46.642Z,56.00
2023-08-10T11:43:16.415Z,56.66
2023-08-10T11:45:45.296Z,57.00
2023-08-10T11:48:18.577Z,57.20
2023-08-10T11:50:48.784Z,57.40
2023-08-10T11:53:20.843Z,57.60
2023-08-10T11:55:51.585Z,57.69
2023-08-10T11:58:21.512Z,57.71
2023-08-10T12:00:52.178Z,57.89
2023-08-10T12:03:33.542Z,58.15
2023-08-10T12:06:05.860Z,58.56
2023-08-10T12:08:41.504Z,58.36
2023-08-10T12:11:16.587Z,58.80
2023-08-10T12:13:51.154Z,59.07
2023-08-10T12:16:22.360Z,59.04
2023-08-10T12:18:51.535Z,59.31
2023-08-10T12:21:20.530Z,59.39
2023-08-10T12:23:56.695Z,59.40
2023-08-10T12:26:25.682Z,59.56
2023-08-10T12:28:54.011Z,59.30
2023-08-10T12:31:22.760Z,59.67
2023-08-10T12:33:52.959Z,60.05
2023-08-10T12:36:21.189Z,60.21
2023-08-10T12:38:49.537Z,60.38
2023-08-10T12:41:17.858Z,60.57
2023-08-10T12:43:46.357Z,60.37
2023-08-10T12:46:16.425Z,60.41
2023-08-10T12:48:45.726Z,60.62
2023-08-10T12:51:14.844Z,60.59
2023-08-10T12:53:43.365Z,60.68
2023-08-10T12:56:12.199Z,60.63
2023-08-10T12:58:41.138Z,60.52
2023-08-10T13:01:09.639Z,60.11
2023-08-10T13:03:39.063Z,60.03
2023-08-10T13:06:07.509Z,60.05
2023-08-10T13:08:35.919Z,60.20
2023-08-10T13:11:04.955Z,60.50
2023-08-10T13:13:34.362Z,60.52
2023-08-10T13:16:04.207Z,60.47
2023-08-10T13:18:33.659Z,60.50
2023-08-10T13:21:02.178Z,60.36
2023-08-10T13:23:30.633Z,60.11
2023-08-10T13:26:01.083Z,59.72
2023-08-10T13:28:29.968Z,59.89
2023-08-10T13:30:59.860Z,59.74
2023-08-10T13:33:28.294Z,59.44
2023-08-10T13:35:57.266Z,58.85
2023-08-10T13:38:30.400Z,59.06
2023-08-10T13:40:59.720Z,58.73
2023-08-10T13:43:28.675Z,58.59
2023-08-10T13:45:57.175Z,58.16
2023-08-10T13:48:26.097Z,57.72
2023-08-10T13:50:54.415Z,57.41
2023-08-10T13:53:23.752Z,57.27
2023-08-10T13:55:53.064Z,57.13
2023-08-10T13:58:22.679Z,57.03
2023-08-10T14:00:51.146Z,56.83
2023-08-10T14:03:19.795Z,56.67
2023-08-10T14:05:48.659Z,56.19
2023-08-10T14:08:18.320Z,55.87
2023-08-10T14:10:46.787Z,55.21
2023-08-10T14:13:15.476Z,55.34
2023-08-10T14:15:44.595Z,55.82
2023-08-10T14:18:13.083Z,55.46
2023-08-10T14:20:42.012Z,55.02
2023-08-10T14:23:10.594Z,54.47
2023-08-10T14:25:38.963Z,54.06
2023-08-10T14:28:07.274Z,54.32
2023-08-10T14:30:35.990Z,53.86
2023-08-10T14:33:04.942Z,53.57
2023-08-10T14:35:34.566Z,53.38
2023-08-10T14:38:04.399Z,53.27
2023-08-10T14:40:32.617Z,53.68
2023-08-10T14:43:01.165Z,53.67
2023-08-10T14:45:31.301Z,53.20
2023-08-10T14:48:01.937Z,53.06
2023-08-10T14:50:30.561Z,53.38
2023-08-10T14:52:59.208Z,53.80
2023-08-10T14:55:28.259Z,53.97
2023-08-10T14:57:56.774Z,53.58
2023-08-10T15:00:25.236Z,53.37
2023-08-10T15:02:53.776Z,53.13
2023-08-10T15:05:23.287Z,52.73
2023-08-10T15:07:51.947Z,53.12
2023-08-10T15:10:21.573Z,53.66
2023-08-10T15:12:50.341Z,53.32
2023-08-10T15:15:20.669Z,53.93
2023-08-10T15:17:50.360Z,53.59
2023-08-10T15:20:20.965Z,54.06
2023-08-10T15:22:49.868Z,53.95
2023-08-10T15:25:19.162Z,53.75
2023-08-10T15:27:47.505Z,53.90
2023-08-10T15:30:17.009Z,54.49
2023-08-10T15:32:46.523Z,54.49
2023-08-10T15:35:15.059Z,54.55
2023-08-10T15:37:43.708Z,54.82
2023-08-10T15:40:12.624Z,54.96
2023-08-10T15:42:41.126Z,55.21
2023-08-10T15:45:10.922Z,55.12
2023-08-10T15:47:39.549Z,55.17
2023-08-10T15:50:11.352Z,54.87
2023-08-10T15:52:41.529Z,55.07
2023-08-10T15:55:10.793Z,55.51
2023-08-10T15:57:39.788Z,55.54
2023-08-10T16:00:09.915Z,55.30
2023-08-10T16:02:39.455Z,55.22
2023-08-10T16:05:09.384Z,55.32
2023-08-10T16:07:39.313Z,55.49
2023-08-10T16:10:09.016Z,55.73
2023-08-10T16:12:38.296Z,55.84
2023-08-10T16:15:08.286Z,55.63
2023-08-10T16:17:37.462Z,55.39
2023-08-10T16:20:09.881Z,55.35
2023-08-10T16:22:47.463Z,55.00
2023-08-10T16:25:16.614Z,54.65
2023-08-10T16:27:45.102Z,55.03
2023-08-10T16:30:14.018Z,55.26
2023-08-10T16:32:43.179Z,55.16
2023-08-10T16:35:11.726Z,55.32
2023-08-10T16:37:41.114Z,55.65
2023-08-10T16:40:09.755Z,55.62
2023-08-10T16:42:38.404Z,55.72
2023-08-10T16:45:07.511Z,55.60
2023-08-10T16:47:36.180Z,55.47
2023-08-10T16:50:06.136Z,55.52
2023-08-10T16:52:34.426Z,55.61
2023-08-10T16:55:07.245Z,55.44
2023-08-10T16:57:35.637Z,55.50
2023-08-10T17:00:09.918Z,55.73
2023-08-10T17:02:38.882Z,55.77
2023-08-10T17:05:07.885Z,55.94
2023-08-10T17:07:36.442Z,56.13
2023-08-10T17:10:06.337Z,55.98
2023-08-10T17:12:35.200Z,55.99
2023-08-10T17:15:04.292Z,56.10
2023-08-10T17:17:33.573Z,56.21
2023-08-10T17:20:02.648Z,56.10
2023-08-10T17:22:31.496Z,56.37
2023-08-10T17:24:59.975Z,56.54
2023-08-10T17:27:28.512Z,56.52
2023-08-10T17:29:59.165Z,56.54
2023-08-10T17:32:27.719Z,56.79
2023-08-10T17:34:57.973Z,56.91
2023-08-10T17:37:37.785Z,57.06
2023-08-10T17:40:10.092Z,57.19
2023-08-10T17:42:38.966Z,57.55
2023-08-10T17:45:08.093Z,57.94
2023-08-10T17:47:37.232Z,58.34
2023-08-10T17:50:07.673Z,58.73
2023-08-10T17:52:40.353Z,58.99
2023-08-10T17:55:12.157Z,59.26
2023-08-10T17:57:41.518Z,59.50
2023-08-10T18:00:13.356Z,59.65
2023-08-10T18:02:42.777Z,60.03
2023-08-10T18:05:12.663Z,60.23
2023-08-10T18:07:41.249Z,60.20
2023-08-10T18:10:10.158Z,60.18
2023-08-10T18:12:46.699Z,60.41
2023-08-10T18:15:16.351Z,60.62
2023-08-10T18:17:45.111Z,60.84
2023-08-10T18:20:14.083Z,61.11
2023-08-10T18:22:42.748Z,61.23
2023-08-10T18:25:11.220Z,61.53
2023-08-10T18:27:40.642Z,61.65
2023-08-10T18:30:10.181Z,61.90
2023-08-10T18:32:39.743Z,62.31
2023-08-10T18:35:10.339Z,62.48
2023-08-10T18:37:38.816Z,62.74
2023-08-10T18:40:08.042Z,62.75
2023-08-10T18:42:36.464Z,62.93
2023-08-10T18:45:06.348Z,63.12
2023-08-10T18:47:35.416Z,63.35
2023-08-10T18:50:06.888Z,63.67
2023-08-10T18:52:35.247Z,63.91
2023-08-10T18:55:03.680Z,63.97
2023-08-10T18:57:33.693Z,64.18
2023-08-10T19:00:02.538Z,64.59
2023-08-10T19:02:32.304Z,64.64
2023-08-10T19:05:01.073Z,64.96
2023-08-10T19:07:29.425Z,65.28
2023-08-10T19:09:59.260Z,65.50
2023-08-10T19:12:28.423Z,65.81
2023-08-10T19:14:57.048Z,65.95
2023-08-10T19:17:26.192Z,65.84
2023-08-10T19:19:54.957Z,65.97
2023-08-10T19:22:23.354Z,66.21
2023-08-10T19:24:52.040Z,66.24
2023-08-10T19:27:21.082Z,66.38
2023-08-10T19:29:49.820Z,66.27
2023-08-10T19:32:18.500Z,66.71
2023-08-10T19:34:47.867Z,66.57
2023-08-10T19:37:16.284Z,66.55
2023-08-10T19:39:44.756Z,66.65
2023-08-10T19:42:14.254Z,66.60
2023-08-10T19:44:44.566Z,66.74
2023-08-10T19:47:14.238Z,66.69
2023-08-10T19:49:46.988Z,66.92
2023-08-10T19:52:15.913Z,66.90
2023-08-10T19:54:47.313Z,67.00
2023-08-10T19:57:15.985Z,67.02
2023-08-10T19:59:44.609Z,66.94
2023-08-10T20:02:13.045Z,67.20
2023-08-10T20:04:42.052Z,67.04
2023-08-10T20:07:11.221Z,66.99
2023-08-10T20:09:40.658Z,67.24
2023-08-10T20:12:09.689Z,67.30
2023-08-10T20:14:38.356Z,67.25
2023-08-10T20:17:07.545Z,67.36
2023-08-10T20:19:36.449Z,67.43
2023-08-10T20:22:06.360Z,67.33
2023-08-10T20:24:46.327Z,67.20
2023-08-10T20:27:15.458Z,67.15
2023-08-10T20:29:44.563Z,67.33
2023-08-10T20:32:14.659Z,67.37
2023-08-10T20:34:43.582Z,67.24
2023-08-10T20:37:13.091Z,67.37
2023-08-10T20:39:42.253Z,67.31
2023-08-10T20:42:13.765Z,67.34
2023-08-10T20:44:44.264Z,67.42
2023-08-10T20:47:13.179Z,67.44
2023-08-10T20:49:42.759Z,67.44
2023-08-10T20:52:15.029Z,67.45
2023-08-10T20:54:43.603Z,67.52
2023-08-10T20:57:12.413Z,67.58
2023-08-10T20:59:43.942Z,67.67
2023-08-10T21:02:12.618Z,67.65
2023-08-10T21:04:41.634Z,67.68
2023-08-10T21:07:11.361Z,67.74
2023-08-10T21:09:41.160Z,67.70
2023-08-10T21:12:10.937Z,67.91
2023-08-10T21:14:40.000Z,67.85
2023-08-10T21:17:09.674Z,67.91
2023-08-10T21:19:38.704Z,67.99
2023-08-10T21:22:08.628Z,68.15
2023-08-10T21:24:38.119Z,68.06
2023-08-10T21:27:07.335Z,68.14
2023-08-10T21:29:38.102Z,68.14
2023-08-10T21:32:06.946Z,68.16
2023-08-10T21:34:36.574Z,68.17
2023-08-10T21:37:05.485Z,68.27
2023-08-10T21:39:39.312Z,68.25
2023-08-10T21:42:08.498Z,68.30
2023-08-10T21:44:37.063Z,68.48
2023-08-10T21:47:06.548Z,68.37
2023-08-10T21:49:35.251Z,68.32
2023-08-10T21:52:03.551Z,68.32
2023-08-10T21:54:32.709Z,68.44
2023-08-10T21:57:03.253Z,68.49
2023-08-10T21:59:33.607Z,68.42
2023-08-10T22:02:03.200Z,68.50
2023-08-10T22:04:32.928Z,68.44
2023-08-10T22:07:05.686Z,68.49
2023-08-10T22:09:35.897Z,68.46
2023-08-10T22:12:05.128Z,68.44
2023-08-10T22:14:34.364Z,68.56
2023-08-10T22:17:04.168Z,68.69
2023-08-10T22:19:32.654Z,68.76
2023-08-10T22:22:01.353Z,68.80
2023-08-10T22:24:29.806Z,68.91
2023-08-10T22:26:58.427Z,68.98
2023-08-10T22:29:27.020Z,69.04
2023-08-10T22:31:55.429Z,69.05
2023-08-10T22:34:23.805Z,69.06
2023-08-10T22:36:52.153Z,69.13
2023-08-10T22:39:20.602Z,69.16
2023-08-10T22:41:49.081Z,69.15
2023-08-10T22:44:17.365Z,69.06
2023-08-10T22:46:45.685Z,69.04
2023-08-10T22:49:14.081Z,68.98
2023-08-10T22:51:42.510Z,68.86
2023-08-10T22:54:11.344Z,68.89
2023-08-10T22:56:39.803Z,68.82
2023-08-10T22:59:09.213Z,68.81
2023-08-10T23:01:37.481Z,68.85
2023-08-10T23:04:07.383Z,68.80
2023-08-10T23:06:35.772Z,68.83
2023-08-10T23:09:04.332Z,69.04
2023-08-10T23:11:32.839Z,69.05
2023-08-10T23:14:01.104Z,69.05
2023-08-10T23:16:29.350Z,69.08
2023-08-10T23:18:57.949Z,69.11
2023-08-10T23:21:26.219Z,69.27
2023-08-10T23:23:54.811Z,69.36
2023-08-10T23:26:23.381Z,69.51
2023-08-10T23:28:51.994Z,69.63
2023-08-10T23:31:20.494Z,69.77
2023-08-10T23:33:49.684Z,69.66
2023-08-10T23:36:18.001Z,69.75
2023-08-10T23:38:46.713Z,69.89
2023-08-10T23:41:15.698Z,70.04
2023-08-10T23:43:44.325Z,70.03
2023-08-10T23:46:12.982Z,70.16
2023-08-10T23:48:41.359Z,70.34
2023-08-10T23:51:09.615Z,70.49
2023-08-10T23:53:38.015Z,70.51
2023-08-10T23:56:06.930Z,70.59
2023-08-10T23:58:39.134Z,70.60
